Spabunker 51 — ECNA — position and weather

sailwx.info

Track history (hours):
 
Tides and Currents Weather Stations Pressure Air Temp Water Temp Dewpoint Dewpoint Depression Visibility Wind Speed Wind Dir Waves Ship Positions

Spabunker 51

Last reported at 2015-Mar-02 22:33 UTC. Time now 2015-Mar-02 23:17 UTC.
Position N 36°06' W 005°24'.

Length 84 m; draft 5.8 m.

Type: Ship (hazmat cat A). MMSI: 224322240.

Date/timePositionNaut miles runAvg speedWind from/ knotsBaromVisibWave heightAir tempDewpointWater temp
2015-Mar-02 22:33N 36°06' W 005°24'0 0.0
2015-Mar-02 21:33N 36°06' W 005°24'3 2.2
2015-Mar-02 20:14N 36°09' W 005°26'0 0.0
2015-Mar-02 19:33N 36°09' W 005°26'0 0.0
2015-Mar-02 17:32N 36°09' W 005°26'0 0.0
2015-Mar-02 16:31N 36°09' W 005°26'0 0.0
2015-Mar-02 14:15N 36°09' W 005°26'0 0.0
2015-Mar-02 13:10N 36°09' W 005°26'0 0.0
2015-Mar-02 11:33N 36°09' W 005°26'0 0.0
2015-Mar-02 10:32N 36°09' W 005°26'0 0.0
2015-Mar-02 09:33N 36°09' W 005°26'0 0.0
2015-Mar-02 08:29N 36°09' W 005°26'0 0.0
2015-Mar-02 07:33N 36°09' W 005°26'0 0.0
2015-Mar-02 06:22N 36°09' W 005°26'0 0.0
2015-Mar-02 03:26N 36°09' W 005°26'0 0.0
2015-Mar-02 02:32N 36°09' W 005°26'2 1.8
2015-Mar-02 01:33N 36°10' W 005°24'1 0.7
2015-Mar-02 00:21N 36°11' W 005°24'0 0.0
2015-Mar-01 23:30N 36°11' W 005°24'0 0.0
2015-Mar-01 22:21N 36°11' W 005°24'0 0.0
2015-Mar-01 21:31N 36°11' W 005°24'0 0.0
2015-Mar-01 20:32N 36°11' W 005°24'0 0.0
2015-Mar-01 19:32N 36°11' W 005°24'0 0.0
2015-Mar-01 18:33N 36°11' W 005°24'0 0.0
2015-Mar-01 17:33N 36°11' W 005°24'0 0.0
2015-Mar-01 16:33N 36°11' W 005°24'0 0.0
2015-Mar-01 15:33N 36°11' W 005°24'0 0.0
2015-Mar-01 14:29N 36°11' W 005°24'3 1.2
2015-Mar-01 12:17N 36°09' W 005°26'0 0.1
2015-Mar-01 10:34N 36°09' W 005°26'1 1.1
2015-Mar-01 09:33N 36°08' W 005°25'0 0.0
2015-Mar-01 08:24N 36°08' W 005°25'0 0.0
2015-Mar-01 07:30N 36°08' W 005°25'1 1.3
2015-Mar-01 06:33N 36°09' W 005°26'0 0.0
2015-Mar-01 05:33N 36°09' W 005°26'0 0.0
2015-Mar-01 04:33N 36°09' W 005°26'0 0.0
2015-Mar-01 03:33N 36°09' W 005°26'0 0.0
2015-Mar-01 02:33N 36°09' W 005°26'0 0.0
2015-Mar-01 01:33N 36°09' W 005°26'0 0.0
2015-Mar-01 00:33N 36°09' W 005°26'0 0.0
2015-Feb-28 23:33N 36°09' W 005°26'0 0.0
2015-Feb-28 22:31N 36°09' W 005°26'2 1.6
2015-Feb-28 21:33N 36°08' W 005°25'0 0.0
2015-Feb-28 20:33N 36°08' W 005°25'0 0.0
2015-Feb-28 19:31N 36°08' W 005°25'0 0.0
2015-Feb-28 18:33N 36°08' W 005°25'0 0.1
2015-Feb-28 17:32N 36°08' W 005°25'0 0.1
2015-Feb-28 16:33N 36°08' W 005°25'0 0.4
2015-Feb-28 15:32N 36°08' W 005°25'1 1.2
2015-Feb-28 14:33N 36°10' W 005°25'0 0.0
2015-Feb-28 13:29N 36°10' W 005°25'3 2.0
2015-Feb-28 12:06N 36°07' W 005°24'0 0.2
2015-Feb-28 11:32N 36°07' W 005°24'0 0.0
2015-Feb-28 10:33N 36°07' W 005°24'0 0.1
2015-Feb-28 09:33N 36°07' W 005°24'0 0.0
2015-Feb-28 05:05N 36°07' W 005°24'0 0.2
2015-Feb-28 04:34N 36°07' W 005°24'2 1.7
2015-Feb-28 03:23N 36°08' W 005°26'0 0.0
2015-Feb-28 02:33N 36°08' W 005°26'0 0.0
2015-Feb-28 01:30N 36°08' W 005°26'0 0.0
2015-Feb-28 00:30N 36°08' W 005°26'0 0.0
2015-Feb-27 23:31N 36°08' W 005°26'0 0.0
2015-Feb-27 22:33N 36°08' W 005°26'2 2.0
2015-Feb-27 21:33N 36°10' W 005°24'1 0.7
2015-Feb-27 20:33N 36°11' W 005°24'0 0.0
2015-Feb-27 19:32N 36°11' W 005°24'0 0.0
2015-Feb-27 18:30N 36°11' W 005°24'0 0.0
2015-Feb-27 17:31N 36°11' W 005°24'0 0.0
2015-Feb-27 16:33N 36°11' W 005°24'0 0.0
2015-Feb-27 15:33N 36°11' W 005°24'3 2.2
2015-Feb-27 14:22N 36°09' W 005°26'1 0.5
2015-Feb-27 13:13N 36°08' W 005°26'0 0.0
2015-Feb-27 12:30N 36°08' W 005°26'0 0.0
2015-Feb-27 11:18N 36°08' W 005°26'0 0.0
2015-Feb-27 10:33N 36°08' W 005°26'0 0.0
2015-Feb-27 09:33N 36°08' W 005°26'0 0.0
2015-Feb-27 08:30N 36°08' W 005°26'0 0.0
2015-Feb-27 07:33N 36°08' W 005°26'0 0.3
2015-Feb-27 06:28N 36°08' W 005°26'0 0.0
2015-Feb-27 05:32N 36°08' W 005°26'0 0.0
2015-Feb-27 04:24N 36°08' W 005°26'0 0.0
2015-Feb-27 03:33N 36°08' W 005°26'0 0.0
2015-Feb-27 02:33N 36°08' W 005°26'0 0.0
2015-Feb-27 01:33N 36°08' W 005°26'0 0.0
2015-Feb-27 00:33N 36°08' W 005°26'0 0.0
2015-Feb-26 23:33N 36°08' W 005°26'0 0.0
2015-Feb-26 22:33N 36°08' W 005°26'0 0.0
2015-Feb-26 21:33N 36°08' W 005°26'0 0.0
2015-Feb-26 20:28N 36°08' W 005°26'2 1.1
2015-Feb-26 18:32N 36°10' W 005°24'1 0.6
2015-Feb-26 17:32N 36°11' W 005°24'0 0.0
2015-Feb-26 16:33N 36°11' W 005°24'0 0.0
2015-Feb-26 15:33N 36°11' W 005°24'0 0.0
2015-Feb-26 14:32N 36°11' W 005°24'0 0.0
2015-Feb-26 13:33N 36°11' W 005°24'0 0.0
2015-Feb-26 12:33N 36°11' W 005°24'0 0.0
2015-Feb-26 11:33N 36°11' W 005°24'0 0.0
2015-Feb-26 10:33N 36°11' W 005°24'0 0.0
2015-Feb-26 09:30N 36°11' W 005°24'3 2.9
2015-Feb-26 08:33N 36°08' W 005°26'0 0.0
2015-Feb-26 07:20N 36°08' W 005°26'0 0.0
2015-Feb-26 06:32N 36°08' W 005°26'0 0.1
2015-Feb-26 05:33N 36°09' W 005°26'0 0.2
2015-Feb-26 04:26N 36°09' W 005°26'0 0.0
2015-Feb-26 03:31N 36°09' W 005°26'0 0.0
2015-Feb-26 02:21N 36°09' W 005°26'0 0.0
2015-Feb-26 01:33N 36°09' W 005°26'0 0.5
2015-Feb-26 00:32N 36°08' W 005°26'0 0.0
2015-Feb-25 23:29N 36°08' W 005°26'0 0.0
2015-Feb-25 22:33N 36°08' W 005°26'0 0.0
2015-Feb-25 21:23N 36°08' W 005°26'0 0.0
2015-Feb-25 20:33N 36°08' W 005°26'0 0.4
2015-Feb-25 19:33N 36°09' W 005°26'0 0.0
2015-Feb-25 13:33N 36°09' W 005°26'0 0.0
2015-Feb-25 12:04N 36°09' W 005°26'0 0.5
2015-Feb-25 11:33N 36°09' W 005°26'0 0.0
2015-Feb-25 10:33N 36°09' W 005°26'0 0.0
2015-Feb-25 09:33N 36°09' W 005°26'0 0.0
2015-Feb-25 08:33N 36°09' W 005°26'0 0.1
2015-Feb-25 07:33N 36°09' W 005°26'0 0.2
2015-Feb-25 06:33N 36°09' W 005°26'0 0.0
2015-Feb-25 05:33N 36°09' W 005°26'0 0.0
2015-Feb-25 04:33N 36°09' W 005°26'3 2.7
2015-Feb-25 03:31N 36°11' W 005°24'0 0.0
2015-Feb-25 02:32N 36°11' W 005°24'0 0.0
2015-Feb-25 01:23N 36°11' W 005°24'0 0.0
2015-Feb-25 00:33N 36°11' W 005°24'0 0.0
2015-Feb-24 23:31N 36°11' W 005°24'0 0.0
2015-Feb-24 22:33N 36°11' W 005°24'0 0.0
2015-Feb-24 21:33N 36°11' W 005°24'0 0.0
2015-Feb-24 20:33N 36°11' W 005°24'0 0.0
2015-Feb-24 19:24N 36°11' W 005°24'1 0.8
2015-Feb-24 18:30N 36°10' W 005°23'4 2.1
2015-Feb-24 16:31N 36°06' W 005°24'0 0.3
2015-Feb-24 15:33N 36°06' W 005°24'0 0.0
2015-Feb-24 14:33N 36°06' W 005°24'0 0.1
2015-Feb-24 13:33N 36°06' W 005°24'0 0.0
2015-Feb-24 12:33N 36°06' W 005°24'0 0.0
2015-Feb-24 11:33N 36°06' W 005°24'0 0.0
2015-Feb-24 10:33N 36°06' W 005°24'0 0.0
2015-Feb-24 09:33N 36°06' W 005°24'0 0.0
2015-Feb-24 08:33N 36°06' W 005°24'1 0.9
2015-Feb-24 07:33N 36°05' W 005°24'0 0.1
2015-Feb-24 06:33N 36°05' W 005°24'0 0.0
2015-Feb-24 05:33N 36°05' W 005°24'0 0.1
2015-Feb-24 04:33N 36°05' W 005°24'0 0.1
2015-Feb-24 03:33N 36°05' W 005°24'0 0.0
2015-Feb-24 02:33N 36°05' W 005°24'2 1.5
2015-Feb-24 01:31N 36°06' W 005°25'0 0.0
2015-Feb-24 00:32N 36°06' W 005°25'0 0.0
2015-Feb-23 23:29N 36°06' W 005°25'0 0.0
2015-Feb-23 22:33N 36°06' W 005°25'2 1.8
2015-Feb-23 21:33N 36°05' W 005°24'0 0.1
2015-Feb-23 20:33N 36°05' W 005°24'0 0.2
2015-Feb-23 19:33N 36°05' W 005°24'0 0.1
2015-Feb-23 18:33N 36°05' W 005°24'0 0.1
2015-Feb-23 17:33N 36°05' W 005°24'0 0.1
2015-Feb-23 16:33N 36°05' W 005°24'0 0.0
2015-Feb-23 15:34N 36°05' W 005°24'0 0.2
2015-Feb-23 14:33N 36°05' W 005°24'0 0.0
2015-Feb-23 13:33N 36°05' W 005°24'0 0.0
2015-Feb-23 12:33N 36°05' W 005°24'0 0.0
2015-Feb-23 11:33N 36°05' W 005°24'0 0.0
2015-Feb-23 10:33N 36°05' W 005°24'0 0.1
2015-Feb-23 09:33N 36°05' W 005°24'0 0.1
2015-Feb-23 08:33N 36°05' W 005°24'1 1.5
2015-Feb-23 07:32N 36°06' W 005°25'0 0.1
2015-Feb-23 06:32N 36°06' W 005°25'0 0.1
2015-Feb-23 05:33N 36°06' W 005°25'0 0.0
2015-Feb-23 04:33N 36°06' W 005°25'0 0.0
2015-Feb-23 03:33N 36°06' W 005°25'0 0.0
2015-Feb-23 02:33N 36°06' W 005°25'0 0.0
2015-Feb-23 01:33N 36°06' W 005°25'0 0.1
2015-Feb-23 00:33N 36°06' W 005°25'1 0.6
2015-Feb-22 23:33N 36°07' W 005°25'1 1.2
2015-Feb-22 22:33N 36°08' W 005°25'0 0.0
2015-Feb-22 21:33N 36°08' W 005°25'0 0.0
2015-Feb-22 20:33N 36°08' W 005°25'0 0.0
2015-Feb-22 19:33N 36°08' W 005°25'3 0.9
2015-Feb-22 16:07N 36°11' W 005°24'0 0.0
2015-Feb-22 15:15N 36°11' W 005°24'0 0.0
2015-Feb-22 14:16N 36°11' W 005°24'0 0.0
2015-Feb-22 13:30N 36°11' W 005°24'0 0.0
2015-Feb-22 12:07N 36°11' W 005°24'0 0.0
2015-Feb-22 11:19N 36°11' W 005°24'0 0.0
2015-Feb-22 10:21N 36°11' W 005°24'0 0.0
2015-Feb-22 09:25N 36°11' W 005°24'0 0.0
2015-Feb-22 08:24N 36°11' W 005°24'0 0.0
2015-Feb-22 07:30N 36°11' W 005°24'0 0.0
2015-Feb-22 02:21N 36°11' W 005°24'0 0.0
2015-Feb-22 00:32N 36°11' W 005°24'2 2.0
2015-Feb-21 23:33N 36°10' W 005°26'0 0.0
2015-Feb-21 22:32N 36°10' W 005°26'0 0.0
2015-Feb-21 21:32N 36°10' W 005°26'0 0.0
2015-Feb-21 20:33N 36°10' W 005°26'0 0.0
2015-Feb-21 19:33N 36°10' W 005°26'0 0.0
2015-Feb-21 18:30N 36°10' W 005°26'2 0.8
2015-Feb-21 15:33N 36°10' W 005°23'0 0.0
2015-Feb-21 02:14N 36°10' W 005°23'  
Track history (hours):
 
Tides and Currents Weather Stations Pressure Air Temp Water Temp Dewpoint Dewpoint Depression Visibility Wind Speed Wind Dir Waves Ship Positions

Spabunker 51

Last reported at 2015-Mar-02 22:33 UTC. Time now 2015-Mar-02 23:17 UTC.
Position N 36°06' W 005°24'.

Length 84 m; draft 5.8 m.

Type: Ship (hazmat cat A). MMSI: 224322240.

Date/timePositionNaut miles runAvg speedWind from/ knotsBaromVisibWave heightAir tempDewpointWater temp
2015-Mar-02 22:33N 36°06' W 005°24'0 0.0
2015-Mar-02 21:33N 36°06' W 005°24'3 2.2
2015-Mar-02 20:14N 36°09' W 005°26'0 0.0
2015-Mar-02 19:33N 36°09' W 005°26'0 0.0
2015-Mar-02 17:32N 36°09' W 005°26'0 0.0
2015-Mar-02 16:31N 36°09' W 005°26'0 0.0
2015-Mar-02 14:15N 36°09' W 005°26'0 0.0
2015-Mar-02 13:10N 36°09' W 005°26'0 0.0
2015-Mar-02 11:33N 36°09' W 005°26'0 0.0
2015-Mar-02 10:32N 36°09' W 005°26'0 0.0
2015-Mar-02 09:33N 36°09' W 005°26'0 0.0
2015-Mar-02 08:29N 36°09' W 005°26'0 0.0
2015-Mar-02 07:33N 36°09' W 005°26'0 0.0
2015-Mar-02 06:22N 36°09' W 005°26'0 0.0
2015-Mar-02 03:26N 36°09' W 005°26'0 0.0
2015-Mar-02 02:32N 36°09' W 005°26'2 1.8
2015-Mar-02 01:33N 36°10' W 005°24'1 0.7
2015-Mar-02 00:21N 36°11' W 005°24'0 0.0
2015-Mar-01 23:30N 36°11' W 005°24'0 0.0
2015-Mar-01 22:21N 36°11' W 005°24'0 0.0
2015-Mar-01 21:31N 36°11' W 005°24'0 0.0
2015-Mar-01 20:32N 36°11' W 005°24'0 0.0
2015-Mar-01 19:32N 36°11' W 005°24'0 0.0
2015-Mar-01 18:33N 36°11' W 005°24'0 0.0
2015-Mar-01 17:33N 36°11' W 005°24'0 0.0
2015-Mar-01 16:33N 36°11' W 005°24'0 0.0
2015-Mar-01 15:33N 36°11' W 005°24'0 0.0
2015-Mar-01 14:29N 36°11' W 005°24'3 1.2
2015-Mar-01 12:17N 36°09' W 005°26'0 0.1
2015-Mar-01 10:34N 36°09' W 005°26'1 1.1
2015-Mar-01 09:33N 36°08' W 005°25'0 0.0
2015-Mar-01 08:24N 36°08' W 005°25'0 0.0
2015-Mar-01 07:30N 36°08' W 005°25'1 1.3
2015-Mar-01 06:33N 36°09' W 005°26'0 0.0
2015-Mar-01 05:33N 36°09' W 005°26'0 0.0
2015-Mar-01 04:33N 36°09' W 005°26'0 0.0
2015-Mar-01 03:33N 36°09' W 005°26'0 0.0
2015-Mar-01 02:33N 36°09' W 005°26'0 0.0
2015-Mar-01 01:33N 36°09' W 005°26'0 0.0
2015-Mar-01 00:33N 36°09' W 005°26'0 0.0
2015-Feb-28 23:33N 36°09' W 005°26'0 0.0
2015-Feb-28 22:31N 36°09' W 005°26'2 1.6
2015-Feb-28 21:33N 36°08' W 005°25'0 0.0
2015-Feb-28 20:33N 36°08' W 005°25'0 0.0
2015-Feb-28 19:31N 36°08' W 005°25'0 0.0
2015-Feb-28 18:33N 36°08' W 005°25'0 0.1
2015-Feb-28 17:32N 36°08' W 005°25'0 0.1
2015-Feb-28 16:33N 36°08' W 005°25'0 0.4
2015-Feb-28 15:32N 36°08' W 005°25'1 1.2
2015-Feb-28 14:33N 36°10' W 005°25'0 0.0
2015-Feb-28 13:29N 36°10' W 005°25'3 2.0
2015-Feb-28 12:06N 36°07' W 005°24'0 0.2
2015-Feb-28 11:32N 36°07' W 005°24'0 0.0
2015-Feb-28 10:33N 36°07' W 005°24'0 0.1
2015-Feb-28 09:33N 36°07' W 005°24'0 0.0
2015-Feb-28 05:05N 36°07' W 005°24'0 0.2
2015-Feb-28 04:34N 36°07' W 005°24'2 1.7
2015-Feb-28 03:23N 36°08' W 005°26'0 0.0
2015-Feb-28 02:33N 36°08' W 005°26'0 0.0
2015-Feb-28 01:30N 36°08' W 005°26'0 0.0
2015-Feb-28 00:30N 36°08' W 005°26'0 0.0
2015-Feb-27 23:31N 36°08' W 005°26'0 0.0
2015-Feb-27 22:33N 36°08' W 005°26'2 2.0
2015-Feb-27 21:33N 36°10' W 005°24'1 0.7
2015-Feb-27 20:33N 36°11' W 005°24'0 0.0
2015-Feb-27 19:32N 36°11' W 005°24'0 0.0
2015-Feb-27 18:30N 36°11' W 005°24'0 0.0
2015-Feb-27 17:31N 36°11' W 005°24'0 0.0
2015-Feb-27 16:33N 36°11' W 005°24'0 0.0
2015-Feb-27 15:33N 36°11' W 005°24'3 2.2
2015-Feb-27 14:22N 36°09' W 005°26'1 0.5
2015-Feb-27 13:13N 36°08' W 005°26'0 0.0
2015-Feb-27 12:30N 36°08' W 005°26'0 0.0
2015-Feb-27 11:18N 36°08' W 005°26'0 0.0
2015-Feb-27 10:33N 36°08' W 005°26'0 0.0
2015-Feb-27 09:33N 36°08' W 005°26'0 0.0
2015-Feb-27 08:30N 36°08' W 005°26'0 0.0
2015-Feb-27 07:33N 36°08' W 005°26'0 0.3
2015-Feb-27 06:28N 36°08' W 005°26'0 0.0
2015-Feb-27 05:32N 36°08' W 005°26'0 0.0
2015-Feb-27 04:24N 36°08' W 005°26'0 0.0
2015-Feb-27 03:33N 36°08' W 005°26'0 0.0
2015-Feb-27 02:33N 36°08' W 005°26'0 0.0
2015-Feb-27 01:33N 36°08' W 005°26'0 0.0
2015-Feb-27 00:33N 36°08' W 005°26'0 0.0
2015-Feb-26 23:33N 36°08' W 005°26'0 0.0
2015-Feb-26 22:33N 36°08' W 005°26'0 0.0
2015-Feb-26 21:33N 36°08' W 005°26'0 0.0
2015-Feb-26 20:28N 36°08' W 005°26'2 1.1
2015-Feb-26 18:32N 36°10' W 005°24'1 0.6
2015-Feb-26 17:32N 36°11' W 005°24'0 0.0
2015-Feb-26 16:33N 36°11' W 005°24'0 0.0
2015-Feb-26 15:33N 36°11' W 005°24'0 0.0
2015-Feb-26 14:32N 36°11' W 005°24'0 0.0
2015-Feb-26 13:33N 36°11' W 005°24'0 0.0
2015-Feb-26 12:33N 36°11' W 005°24'0 0.0
2015-Feb-26 11:33N 36°11' W 005°24'0 0.0
2015-Feb-26 10:33N 36°11' W 005°24'0 0.0
2015-Feb-26 09:30N 36°11' W 005°24'3 2.9
2015-Feb-26 08:33N 36°08' W 005°26'0 0.0
2015-Feb-26 07:20N 36°08' W 005°26'0 0.0
2015-Feb-26 06:32N 36°08' W 005°26'0 0.1
2015-Feb-26 05:33N 36°09' W 005°26'0 0.2
2015-Feb-26 04:26N 36°09' W 005°26'0 0.0
2015-Feb-26 03:31N 36°09' W 005°26'0 0.0
2015-Feb-26 02:21N 36°09' W 005°26'0 0.0
2015-Feb-26 01:33N 36°09' W 005°26'0 0.5
2015-Feb-26 00:32N 36°08' W 005°26'0 0.0
2015-Feb-25 23:29N 36°08' W 005°26'0 0.0
2015-Feb-25 22:33N 36°08' W 005°26'0 0.0
2015-Feb-25 21:23N 36°08' W 005°26'0 0.0
2015-Feb-25 20:33N 36°08' W 005°26'0 0.4
2015-Feb-25 19:33N 36°09' W 005°26'0 0.0
2015-Feb-25 13:33N 36°09' W 005°26'0 0.0
2015-Feb-25 12:04N 36°09' W 005°26'0 0.5
2015-Feb-25 11:33N 36°09' W 005°26'0 0.0
2015-Feb-25 10:33N 36°09' W 005°26'0 0.0
2015-Feb-25 09:33N 36°09' W 005°26'0 0.0
2015-Feb-25 08:33N 36°09' W 005°26'0 0.1
2015-Feb-25 07:33N 36°09' W 005°26'0 0.2
2015-Feb-25 06:33N 36°09' W 005°26'0 0.0
2015-Feb-25 05:33N 36°09' W 005°26'0 0.0
2015-Feb-25 04:33N 36°09' W 005°26'3 2.7
2015-Feb-25 03:31N 36°11' W 005°24'0 0.0
2015-Feb-25 02:32N 36°11' W 005°24'0 0.0
2015-Feb-25 01:23N 36°11' W 005°24'0 0.0
2015-Feb-25 00:33N 36°11' W 005°24'0 0.0
2015-Feb-24 23:31N 36°11' W 005°24'0 0.0
2015-Feb-24 22:33N 36°11' W 005°24'0 0.0
2015-Feb-24 21:33N 36°11' W 005°24'0 0.0
2015-Feb-24 20:33N 36°11' W 005°24'0 0.0
2015-Feb-24 19:24N 36°11' W 005°24'1 0.8
2015-Feb-24 18:30N 36°10' W 005°23'4 2.1
2015-Feb-24 16:31N 36°06' W 005°24'0 0.3
2015-Feb-24 15:33N 36°06' W 005°24'0 0.0
2015-Feb-24 14:33N 36°06' W 005°24'0 0.1
2015-Feb-24 13:33N 36°06' W 005°24'0 0.0
2015-Feb-24 12:33N 36°06' W 005°24'0 0.0
2015-Feb-24 11:33N 36°06' W 005°24'0 0.0
2015-Feb-24 10:33N 36°06' W 005°24'0 0.0
2015-Feb-24 09:33N 36°06' W 005°24'0 0.0
2015-Feb-24 08:33N 36°06' W 005°24'1 0.9
2015-Feb-24 07:33N 36°05' W 005°24'0 0.1
2015-Feb-24 06:33N 36°05' W 005°24'0 0.0
2015-Feb-24 05:33N 36°05' W 005°24'0 0.1
2015-Feb-24 04:33N 36°05' W 005°24'0 0.1
2015-Feb-24 03:33N 36°05' W 005°24'0 0.0
2015-Feb-24 02:33N 36°05' W 005°24'2 1.5
2015-Feb-24 01:31N 36°06' W 005°25'0 0.0
2015-Feb-24 00:32N 36°06' W 005°25'0 0.0
2015-Feb-23 23:29N 36°06' W 005°25'0 0.0
2015-Feb-23 22:33N 36°06' W 005°25'2 1.8
2015-Feb-23 21:33N 36°05' W 005°24'0 0.1
2015-Feb-23 20:33N 36°05' W 005°24'0 0.2
2015-Feb-23 19:33N 36°05' W 005°24'0 0.1
2015-Feb-23 18:33N 36°05' W 005°24'0 0.1
2015-Feb-23 17:33N 36°05' W 005°24'0 0.1
2015-Feb-23 16:33N 36°05' W 005°24'0 0.0
2015-Feb-23 15:34N 36°05' W 005°24'0 0.2
2015-Feb-23 14:33N 36°05' W 005°24'0 0.0
2015-Feb-23 13:33N 36°05' W 005°24'0 0.0
2015-Feb-23 12:33N 36°05' W 005°24'0 0.0
2015-Feb-23 11:33N 36°05' W 005°24'0 0.0
2015-Feb-23 10:33N 36°05' W 005°24'0 0.1
2015-Feb-23 09:33N 36°05' W 005°24'0 0.1
2015-Feb-23 08:33N 36°05' W 005°24'1 1.5
2015-Feb-23 07:32N 36°06' W 005°25'0 0.1
2015-Feb-23 06:32N 36°06' W 005°25'0 0.1
2015-Feb-23 05:33N 36°06' W 005°25'0 0.0
2015-Feb-23 04:33N 36°06' W 005°25'0 0.0
2015-Feb-23 03:33N 36°06' W 005°25'0 0.0
2015-Feb-23 02:33N 36°06' W 005°25'0 0.0
2015-Feb-23 01:33N 36°06' W 005°25'0 0.1
2015-Feb-23 00:33N 36°06' W 005°25'1 0.6
2015-Feb-22 23:33N 36°07' W 005°25'1 1.2
2015-Feb-22 22:33N 36°08' W 005°25'0 0.0
2015-Feb-22 21:33N 36°08' W 005°25'0 0.0
2015-Feb-22 20:33N 36°08' W 005°25'0 0.0
2015-Feb-22 19:33N 36°08' W 005°25'3 0.9
2015-Feb-22 16:07N 36°11' W 005°24'0 0.0
2015-Feb-22 15:15N 36°11' W 005°24'0 0.0
2015-Feb-22 14:16N 36°11' W 005°24'0 0.0
2015-Feb-22 13:30N 36°11' W 005°24'0 0.0
2015-Feb-22 12:07N 36°11' W 005°24'0 0.0
2015-Feb-22 11:19N 36°11' W 005°24'0 0.0
2015-Feb-22 10:21N 36°11' W 005°24'0 0.0
2015-Feb-22 09:25N 36°11' W 005°24'0 0.0
2015-Feb-22 08:24N 36°11' W 005°24'0 0.0
2015-Feb-22 07:30N 36°11' W 005°24'0 0.0
2015-Feb-22 02:21N 36°11' W 005°24'0 0.0
2015-Feb-22 00:32N 36°11' W 005°24'2 2.0
2015-Feb-21 23:33N 36°10' W 005°26'0 0.0
2015-Feb-21 22:32N 36°10' W 005°26'0 0.0
2015-Feb-21 21:32N 36°10' W 005°26'0 0.0
2015-Feb-21 20:33N 36°10' W 005°26'0 0.0
2015-Feb-21 19:33N 36°10' W 005°26'0 0.0
2015-Feb-21 18:30N 36°10' W 005°26'2 0.8
2015-Feb-21 15:33N 36°10' W 005°23'0 0.0
2015-Feb-21 02:14N 36°10' W 005°23'  

Dump ship's entire track history